Terminal Aerodrome Forecast
Issued by NWS

Home | Current Version | Previous Version | Text Only | Print | Product List | Glossary On
Versions: 1 2 3 4 5 6 7 8 9 10 11 12 13 14 15 16 17 18 19 20 21 22 23 24 25 26 27 28 29 30 31 32 33 34 35 36 37 38
000
FTUS45 KSLC 230301 AAA
TAFLGU
TAF AMD
KLGU 230301Z 2303/2324 14010G16KT P6SM VCSH OVC070
     FM230500 10010KT P6SM VCSH BKN060 OVC070
     FM231800 23009KT P6SM VCSH SCT070 BKN100=

USA.gov is the U.S. government's official web portal to all federal, state and local government web resources and services.